METAR Data
IDs: Format: Raw Decoded Include TAF

Data at: 1857 UTC 16 Oct 2021

KKLS 161756Z AUTO 14010KT 10SM BKN044 12/09 A3006 RMK AO2 SLP183 T01220094 10122 20094 58007